Terminal Aerodrome Forecast
Issued by NWS Twin Cities, MN

Home | Current Version | Previous Version | Graphics & Text | Print | Product List | Glossary On
Versions: 1 2 3 4 5 6 7 8 9 10 11 12 13 14 15
000
FTUS43 KMPX 211500 AAA
TAFEAU
TAF AMD
KEAU 211517Z 2115/2212 36012G20KT P6SM SCT030
      TEMPO 2115/2118 BKN025
     FM212000 34010KT P6SM SCT025 BKN040
     FM220000 34005KT P6SM SCT045
     FM220300 VRB03KT P6SM SKC=

USA.gov is the U.S. government's official web portal to all federal, state and local government web resources and services.